createdAt,value
2023-06-14T00:01:42.874Z,100714.47
2023-06-14T00:06:50.280Z,100710.06
2023-06-14T00:11:52.304Z,100707.66
2023-06-14T00:16:54.561Z,100711.06
2023-06-14T00:21:56.762Z,100718.31
2023-06-14T00:26:58.863Z,100725.56
2023-06-14T00:32:01.111Z,100727.41
2023-06-14T00:37:03.388Z,100720.03
2023-06-14T00:42:06.762Z,100712.91
2023-06-14T00:47:08.710Z,100709.06
2023-06-14T00:52:13.779Z,100710.91
2023-06-14T00:57:15.861Z,100712.06
2023-06-14T01:02:19.458Z,100713.59
2023-06-14T01:07:30.739Z,100726.00
2023-06-14T01:12:40.451Z,100738.78
2023-06-14T01:17:45.136Z,100736.22
2023-06-14T01:22:54.982Z,100731.81
2023-06-14T01:28:02.883Z,100738.09
2023-06-14T01:33:06.734Z,100730.97
2023-06-14T01:38:09.430Z,100737.91
2023-06-14T01:43:13.005Z,100737.91
2023-06-14T01:48:15.872Z,100733.53
2023-06-14T01:53:17.975Z,100732.13
2023-06-14T01:58:20.160Z,100729.09
2023-06-14T02:03:22.868Z,100732.81
2023-06-14T02:08:25.168Z,100732.41
2023-06-14T02:13:27.275Z,100730.13
2023-06-14T02:18:29.699Z,100727.69
2023-06-14T02:23:33.718Z,100734.81
2023-06-14T02:28:37.410Z,100735.53
2023-06-14T02:33:39.550Z,100736.69
2023-06-14T02:38:42.607Z,100752.88
2023-06-14T02:43:44.670Z,100754.31
2023-06-14T02:48:46.612Z,100759.13
2023-06-14T02:53:49.108Z,100756.56
2023-06-14T02:58:51.998Z,100755.41
2023-06-14T03:03:54.143Z,100754.00
2023-06-14T03:08:56.451Z,100765.38
2023-06-14T03:13:58.800Z,100759.00
2023-06-14T03:19:00.828Z,100773.94
2023-06-14T03:24:04.930Z,100775.63
2023-06-14T03:29:06.956Z,100772.66
2023-06-14T03:34:08.971Z,100780.03
2023-06-14T03:39:11.050Z,100785.31
2023-06-14T03:44:13.097Z,100784.75
2023-06-14T03:49:15.308Z,100785.88
2023-06-14T03:55:32.086Z,100782.47
2023-06-14T03:59:39.337Z,100786.03
2023-06-14T04:04:44.807Z,100790.44
2023-06-14T04:09:47.723Z,100788.72
2023-06-14T04:14:49.881Z,100801.53
2023-06-14T04:19:52.076Z,100793.28
2023-06-14T04:25:04.468Z,100816.59
2023-06-14T04:30:08.799Z,100794.84
2023-06-14T04:35:11.866Z,100798.56
2023-06-14T04:40:14.004Z,100818.31
2023-06-14T04:45:17.195Z,100818.44
2023-06-14T04:50:19.712Z,100814.31
2023-06-14T04:55:22.401Z,100820.44
2023-06-14T05:00:24.877Z,100825.00
2023-06-14T05:05:27.031Z,100831.69
2023-06-14T05:10:29.173Z,100836.50
2023-06-14T05:15:31.468Z,100828.25
2023-06-14T05:20:33.562Z,100823.00
2023-06-14T05:25:35.764Z,100831.81
2023-06-14T05:30:38.806Z,100827.69
2023-06-14T05:35:40.791Z,100821.44
2023-06-14T05:40:42.808Z,100831.81
2023-06-14T05:45:44.968Z,100839.34
2023-06-14T05:50:47.276Z,100843.06
2023-06-14T05:55:49.571Z,100855.69
2023-06-14T06:00:52.274Z,100859.09
2023-06-14T06:05:54.220Z,100863.94
2023-06-14T06:10:56.357Z,100865.94
2023-06-14T06:15:58.532Z,100871.47
2023-06-14T06:21:00.605Z,100877.88
2023-06-14T06:26:02.754Z,100890.19
2023-06-14T06:31:05.265Z,100890.19
2023-06-14T06:36:07.926Z,100893.59
2023-06-14T06:41:09.991Z,100902.13
2023-06-14T06:46:12.144Z,100900.00
2023-06-14T06:51:14.792Z,100895.59
2023-06-14T06:56:16.868Z,100897.03
2023-06-14T07:01:20.240Z,100905.66
2023-06-14T07:06:22.880Z,100905.84
2023-06-14T07:11:24.780Z,100913.13
2023-06-14T07:16:27.215Z,100921.50
2023-06-14T07:21:29.331Z,100917.91
2023-06-14T07:26:31.690Z,100926.84
2023-06-14T07:31:33.674Z,100937.09
2023-06-14T07:36:36.099Z,100932.25
2023-06-14T07:41:38.203Z,100941.31
2023-06-14T07:46:40.305Z,100940.75
2023-06-14T07:51:42.177Z,100936.91
2023-06-14T07:56:45.500Z,100934.78
2023-06-14T08:01:48.534Z,100944.44
2023-06-14T08:06:50.857Z,100949.38
2023-06-14T08:11:53.099Z,100949.84
2023-06-14T08:16:55.339Z,100962.03
2023-06-14T08:21:57.705Z,100959.88
2023-06-14T08:27:02.776Z,100959.88
2023-06-14T08:32:05.118Z,100954.16
2023-06-14T08:37:07.946Z,100958.19
2023-06-14T08:42:14.806Z,100958.75
2023-06-14T08:47:28.177Z,100958.59
2023-06-14T08:52:35.135Z,100962.44
2023-06-14T08:57:38.927Z,100964.47
2023-06-14T09:02:44.767Z,100962.47
2023-06-14T09:07:47.168Z,100962.47
2023-06-14T09:12:49.826Z,100958.34
2023-06-14T09:17:52.954Z,100960.16
2023-06-14T09:22:55.362Z,100953.00
2023-06-14T09:27:57.347Z,100955.13
2023-06-14T09:33:01.829Z,100964.53
2023-06-14T09:38:04.107Z,100959.25
2023-06-14T09:43:11.652Z,100954.44
2023-06-14T09:48:19.402Z,100954.69
2023-06-14T09:53:24.525Z,100957.28
2023-06-14T09:58:29.873Z,100959.38
2023-06-14T10:03:49.879Z,100956.41
2023-06-14T10:08:58.894Z,100947.47
2023-06-14T10:14:01.767Z,100957.13
2023-06-14T10:19:08.416Z,100945.88
2023-06-14T10:24:14.521Z,100944.63
2023-06-14T10:29:16.826Z,100936.81
2023-06-14T10:34:26.420Z,100941.19
2023-06-14T10:39:28.637Z,100945.34
2023-06-14T10:44:30.356Z,100950.72
2023-06-14T10:49:43.457Z,100961.25
2023-06-14T10:55:06.415Z,100942.22
2023-06-14T11:00:14.820Z,100949.03
2023-06-14T11:05:17.555Z,100953.13
2023-06-14T11:10:26.940Z,100945.59
2023-06-14T11:15:32.625Z,100952.00
2023-06-14T11:20:36.801Z,100944.78
2023-06-14T11:25:41.380Z,100946.47
2023-06-14T11:30:43.602Z,100932.25
2023-06-14T11:35:45.809Z,100940.34
2023-06-14T11:40:48.060Z,100940.06
2023-06-14T11:46:00.720Z,100932.25
2023-06-14T11:51:10.216Z,100927.69
2023-06-14T11:56:12.734Z,100934.94
2023-06-14T12:01:21.093Z,100945.75
2023-06-14T12:06:34.679Z,100934.13
2023-06-14T12:11:37.697Z,100929.44
2023-06-14T12:16:41.557Z,100931.84
2023-06-14T12:21:48.687Z,100938.06
2023-06-14T12:26:54.111Z,100936.84
2023-06-14T12:31:58.337Z,100933.16
2023-06-14T12:37:00.776Z,100934.28
2023-06-14T12:42:05.434Z,100934.94
2023-06-14T12:47:08.065Z,100939.28
2023-06-14T12:52:10.334Z,100948.22
2023-06-14T12:57:12.635Z,100936.84
2023-06-14T13:02:19.294Z,100944.53
2023-06-14T13:07:21.479Z,100948.75
2023-06-14T13:12:23.510Z,100943.84
2023-06-14T13:17:26.241Z,100941.97
2023-06-14T13:22:28.388Z,100940.00
2023-06-14T13:27:30.536Z,100946.09
2023-06-14T13:32:32.978Z,100943.97
2023-06-14T13:37:35.096Z,100951.63
2023-06-14T13:42:37.578Z,100935.16
2023-06-14T13:47:40.241Z,100947.97
2023-06-14T13:52:42.416Z,100931.75
2023-06-14T13:57:44.919Z,100935.16
2023-06-14T14:02:47.120Z,100924.06
2023-06-14T14:07:49.377Z,100926.09
2023-06-14T14:12:52.351Z,100923.50
2023-06-14T14:17:56.114Z,100920.81
2023-06-14T14:22:58.430Z,100929.75
2023-06-14T14:28:00.381Z,100919.66
2023-06-14T14:33:02.392Z,100918.69
2023-06-14T14:38:07.119Z,100923.22
2023-06-14T14:43:09.292Z,100926.78
2023-06-14T14:48:11.512Z,100917.09
2023-06-14T14:53:14.607Z,100918.81
2023-06-14T14:58:19.838Z,100921.22
2023-06-14T15:03:21.977Z,100936.16
2023-06-14T15:08:24.090Z,100920.13
2023-06-14T15:13:26.245Z,100923.09
2023-06-14T15:18:28.373Z,100913.28
2023-06-14T15:23:30.520Z,100928.91
2023-06-14T15:28:34.087Z,100910.97
2023-06-14T15:33:36.197Z,100918.81
2023-06-14T15:38:38.255Z,100923.38
2023-06-14T15:43:40.283Z,100916.84
2023-06-14T15:48:42.259Z,100915.28
2023-06-14T15:53:44.388Z,100911.56
2023-06-14T15:58:46.445Z,100911.16
2023-06-14T16:03:48.474Z,100910.28
2023-06-14T16:08:50.922Z,100903.19
2023-06-14T16:13:52.851Z,100894.78
2023-06-14T16:18:54.912Z,100904.47
2023-06-14T16:23:56.833Z,100904.59
2023-06-14T16:28:58.838Z,100906.16
2023-06-14T16:34:00.931Z,100902.34
2023-06-14T16:39:02.922Z,100904.88
2023-06-14T16:44:06.514Z,100906.59
2023-06-14T16:49:08.586Z,100911.88
2023-06-14T16:54:10.844Z,100913.69
2023-06-14T16:59:12.899Z,100924.66
2023-06-14T17:04:15.029Z,100917.25
2023-06-14T17:09:17.867Z,100927.34
2023-06-14T17:14:19.942Z,100914.75
2023-06-14T17:19:22.131Z,100926.69
2023-06-14T17:24:25.907Z,100922.16
2023-06-14T17:29:28.635Z,100931.00
2023-06-14T17:34:30.701Z,100932.31
2023-06-14T17:39:32.619Z,100938.31
2023-06-14T17:44:34.704Z,100942.97
2023-06-14T17:49:36.685Z,100940.25
2023-06-14T17:54:38.748Z,100962.66
2023-06-14T17:59:40.954Z,100949.59
2023-06-14T18:04:42.785Z,100953.75
2023-06-14T18:09:48.393Z,100957.81
2023-06-14T18:14:50.707Z,100953.22
2023-06-14T18:19:52.788Z,100965.78
2023-06-14T18:24:54.730Z,100965.94
2023-06-14T18:29:57.270Z,100976.53
2023-06-14T18:34:59.273Z,100982.56
2023-06-14T18:40:01.645Z,100990.66
2023-06-14T18:45:04.007Z,100994.53
2023-06-14T18:50:06.521Z,100990.56
2023-06-14T18:55:09.005Z,100989.66
2023-06-14T19:00:11.479Z,100993.25
2023-06-14T19:05:13.628Z,101000.53
2023-06-14T19:10:15.840Z,101005.41
2023-06-14T19:15:18.660Z,101009.53
2023-06-14T19:20:20.924Z,101002.56
2023-06-14T19:25:22.963Z,101004.56
2023-06-14T19:30:25.226Z,101006.16
2023-06-14T19:35:27.357Z,101015.00
2023-06-14T19:40:29.260Z,101013.69
2023-06-14T19:45:33.857Z,101034.63
2023-06-14T19:50:36.602Z,101022.97
2023-06-14T19:55:38.522Z,101036.69
2023-06-14T20:00:40.661Z,101046.19
2023-06-14T20:05:43.263Z,101051.03
2023-06-14T20:10:45.366Z,101055.38
2023-06-14T20:15:47.607Z,101068.34
2023-06-14T20:20:51.659Z,101073.44
2023-06-14T20:25:53.625Z,101072.72
2023-06-14T20:30:55.534Z,101068.22
2023-06-14T20:35:58.474Z,101071.34
2023-06-14T20:41:00.531Z,101087.63
2023-06-14T20:46:03.425Z,101085.78
2023-06-14T20:51:05.348Z,101097.81
2023-06-14T20:56:07.893Z,101095.34
2023-06-14T21:01:09.960Z,101092.63
2023-06-14T21:06:11.784Z,101095.75
2023-06-14T21:11:13.691Z,101102.94
2023-06-14T21:16:17.271Z,101109.53
2023-06-14T21:21:19.241Z,101101.44
2023-06-14T21:26:24.232Z,101106.13
2023-06-14T21:31:28.524Z,101103.13
2023-06-14T21:36:33.545Z,101103.34
2023-06-14T21:41:39.321Z,101100.09
2023-06-14T21:46:41.653Z,101106.22
2023-06-14T21:51:43.658Z,101115.03
2023-06-14T21:56:46.294Z,101114.75
2023-06-14T22:01:48.300Z,101113.63
2023-06-14T22:06:50.301Z,101118.06
2023-06-14T22:11:52.569Z,101114.94
2023-06-14T22:16:54.612Z,101125.88
2023-06-14T22:21:58.974Z,101124.78
2023-06-14T22:27:01.105Z,101122.94
2023-06-14T22:32:03.281Z,101119.38
2023-06-14T22:37:06.421Z,101123.78
2023-06-14T22:42:08.610Z,101124.78
2023-06-14T22:47:11.770Z,101131.63
2023-06-14T22:52:14.964Z,101129.47
2023-06-14T22:57:18.208Z,101131.16
2023-06-14T23:02:20.623Z,101137.16
2023-06-14T23:07:22.738Z,101138.84
2023-06-14T23:12:26.550Z,101134.56
2023-06-14T23:17:32.176Z,101137.03
2023-06-14T23:22:43.128Z,101135.56
2023-06-14T23:27:46.980Z,101139.13
2023-06-14T23:32:51.097Z,101136.44
2023-06-14T23:37:54.827Z,101140.56
2023-06-14T23:42:57.888Z,101141.41
2023-06-14T23:48:00.069Z,101144.00
2023-06-14T23:53:02.382Z,101149.09
2023-06-14T23:58:05.011Z,101152.63
